Pagina principale
METAR-TAF:

METAR-TAF

Aeroporti :

Aeroporto di Milano-Malpensa

Milano, Italia

latitudine: 45-37N, longitudine: 008-44E, altezza: 234 m

Osservazione

Il bollettino è stato emesso 22 minuti fa, alle 15:50 UTC
Vento 5 kt da ovest, variando fra sud-ovest e ovest/nord-ovest
Temperature 18°C
Umidità 49%
Pressione 1020 hPa
Visibilità 10 km o più
nessuna nube inferiore a 1500 m e nessun cumulonembo

METAR: LIMC 231550Z 27005KT 230V300 CAVOK 18/07 Q1020 NOSIG

Ora: 18:12 (16:12 UTC)

Previsione

Il bollettino è stato emesso 5 ore e 12 minuti fa, alle 11:00 UTC
Previsione valida dal 23 alle 12 UTC al 24 alle 18 UTC
Vento 5 kt da direzioni variabili
Visibilità 10 km o più
nessuna nube inferiore a 1500 m e nessun cumulonembo
Evoluzione graduale
dal 24 alle 09 UTC al 24 alle 11 UTC
Vento 15 kt da nord

TAF: LIMC 231100Z 2312/2418 VRB05KT CAVOK BECMG 2409/2411 35015KT

Osservazioni e previsioni meteorologiche di più di 4000 aeroporti (messaggi METAR e TAF).

Le stazioni disponibili sono rappresentate dai dischi gialli e rossi sulla carta.

Puntare il mouse per vedere il nome della stazione.

Clicca sopra per visualizzare le osservazioni e previsioni meteorologiche.

Per cambiare la mappa : fare clic sui pulsanti verdi con una croce nera per ingrandire, il pulsante verde con un trattino per diminuire, o sulla freccia verde per le mappe adiacenti.


METAR-TAF: